ENFL/FRO METAR and TAF weather

Enter ICAO airport designator
Station Type Date Time Source
ENFL METAR 2018/01/19 17:20 UTC NOAA

ENFL 191720Z 13015KT 9999 -SHSN FEW006 SCT012 BKN018 02/M01 Q0995


Station Type Date Time Source
ENFL Decoded METAR 2018/01/19 17:20 UTC NOAA

Floro, Norway (ENFL) 61-35N 005-02E 9M
Jan 19, 2018 - 12:20 PM EST / 2018.01.19 1720 UTC
Wind: from the SE (130 degrees) at 17 MPH (15 KT):0
Visibility: greater than 7 mile(s):0
Sky conditions: mostly cloudy
Weather: light snow showers
Temperature: 35 F (2 C)
Windchill: 24 F (-4 C):1
Dew Point: 30 F (-1 C)
Relative Humidity: 80%
Pressure (altimeter): 29.38 in. Hg (0995 hPa)
ob: ENFL 191720Z 13015KT 9999 -SHSN FEW006 SCT012 BKN018 02/M01 Q0995
cycle: 17

Station Type Date Time Source
ENFL TAF 2010/02/05 07:50 UTC NOAA

METAR ENFL 050750Z 16019KT 140V200 9999 FEW015 SCT030 BKN055 03/M03 Q1011


Example: see airport list